Pagrindinis puslapis
METAR-TAF:

METAR-TAF

Oro uostai :

Imperatriso oro uostas

Imperatrisas, Maranjanas, Brazilija

platuma: 05-32S, ilguma: 047-30W, Aukštis: 123 m

Dabartinis oras

Ataskaita buvo paskelbta 4 valandos ir 5 minutes, ne 18:00 UTC
Vėjas 8 kt iš Rytų
Temperatūra 37°C
Drėgmė 37%
Slėgis 1009 hPa
Matomumas 10 km arba daugiau
Išsisklaidę debesys ne aukštis 4000 ft

METAR: SBIZ 161800Z 10008KT 9999 SCT040 37/20 Q1009

Laikas: 19:05 (22:05 UTC)

Prognozė

Ataskaita buvo paskelbta 6 valandos ir 42 minutes, ne 15:23 UTC
Prognozė galioja nuo 16 metu 18 UTC su 17 metu 06 UTC
Vėjas 5 kt iš Rytų/Pietryčių
Matomumas 10 km arba daugiau
Tapsmas
nuo 16 metu 19 UTC su 16 metu 21 UTC
Vėjas 5 kt iš Rytų/Šiaurės Rytų
Tapsmas
nuo 17 metu 00 UTC su 17 metu 02 UTC
Vėjas kt iš Šiaurės

TAF: SBIZ 161523Z 1618/1706 12005KT 9999 BKN025TX36/1618Z TN24/1706Z BECMG 1619/1621 06005KT BECMG 1700/1702 00000KT RMK PHI

Orai ataskaitas ir orų prognozės (METAR, TAF).

turimą stotys yra geltonos ir raudonos taškus žemėlapyje.

Perkelti pele per norėdami pamatyti stoties vardą.

Tada spustelėkite, norėdami matyti oro stebėjimo ir prognozės.

Norėdami pakeisti žemėlapį: spustelėkite ant žalios mygtukų su juodo kryžiaus žemyn,; žalią mygtuką su brūkšneliu, jei norite nutolinti; arba žalių rodyklių gretimoms žemėlapius.


METAR-TAF: